Ter Streep — ORDJ — position and weather

sailwx.info

Track history (hours):
 
Tides and Currents Weather Stations Pressure Air Temp Water Temp Dewpoint Dewpoint Depression Visibility Wind Speed Wind Dir Waves Ship Positions

Oceanographic research ship Ter Streep (Belgium)

Detailed information on ship capabilities available from University of Delaware's Ocean Information Center.

Last reported at 2017-Apr-25 16:31 UTC. Time now 2017-Apr-25 16:33 UTC.
Position N 51°14' E 002°56'.

Length 50 m; draft 3.4 m.

Type: Ship. MMSI: 205112000.

Date/timePositionNaut miles runAvg speedWind from/ knotsBaromVisibWave heightAir tempDewpointWater temp
2017-Apr-25 16:31N 51°14' E 002°56'0 0.0
2017-Apr-25 16:00N 51°14' E 002°56'0 0.0
2017-Apr-25 15:31N 51°14' E 002°56'0 0.0
2017-Apr-25 15:01N 51°14' E 002°56'0 0.0
2017-Apr-25 14:31N 51°14' E 002°56'0 0.0
2017-Apr-25 13:31N 51°14' E 002°56'0 0.0
2017-Apr-25 13:01N 51°14' E 002°56'0 0.0
2017-Apr-25 12:31N 51°14' E 002°56'0 0.0
2017-Apr-25 12:00N 51°14' E 002°56'0 0.0
2017-Apr-25 11:31N 51°14' E 002°56'0 0.0
2017-Apr-25 11:01N 51°14' E 002°56'0 0.0
2017-Apr-25 10:31N 51°14' E 002°56'0 0.0
2017-Apr-25 10:01N 51°14' E 002°56'0 0.0
2017-Apr-25 09:31N 51°14' E 002°56'0 0.0
2017-Apr-25 09:01N 51°14' E 002°56'0 0.0
2017-Apr-25 08:31N 51°14' E 002°56'0 0.0
2017-Apr-25 08:00N 51°14' E 002°56'0 0.0
2017-Apr-25 07:31N 51°14' E 002°56'0 0.0
2017-Apr-25 07:01N 51°14' E 002°56'0 0.0
2017-Apr-25 06:31N 51°14' E 002°56'0 0.0
2017-Apr-25 06:01N 51°14' E 002°56'0 0.0
2017-Apr-25 05:31N 51°14' E 002°56'0 0.0
2017-Apr-25 05:01N 51°14' E 002°56'0 0.0
2017-Apr-25 04:31N 51°14' E 002°56'0 0.0
2017-Apr-25 04:01N 51°14' E 002°56'0 0.0
2017-Apr-25 03:30N 51°14' E 002°56'0 0.0
2017-Apr-25 03:01N 51°14' E 002°56'0 0.0
2017-Apr-25 02:31N 51°14' E 002°56'0 0.0
2017-Apr-25 02:00N 51°14' E 002°56'0 0.0
2017-Apr-25 01:31N 51°14' E 002°56'0 0.0
2017-Apr-25 01:01N 51°14' E 002°56'0 0.0
2017-Apr-25 00:30N 51°14' E 002°56'0 0.0
2017-Apr-25 00:01N 51°14' E 002°56'0 0.0
2017-Apr-24 23:30N 51°14' E 002°56'0 0.0
2017-Apr-24 23:01N 51°14' E 002°56'0 0.0
2017-Apr-24 22:31N 51°14' E 002°56'0 0.0
2017-Apr-24 22:00N 51°14' E 002°56'0 0.0
2017-Apr-24 21:31N 51°14' E 002°56'0 0.0
2017-Apr-24 21:01N 51°14' E 002°56'0 0.0
2017-Apr-24 20:31N 51°14' E 002°56'0 0.0
2017-Apr-24 20:01N 51°14' E 002°56'0 0.0
2017-Apr-24 19:31N 51°14' E 002°56'0 0.0
2017-Apr-24 19:00N 51°14' E 002°56'0 0.0
2017-Apr-24 18:31N 51°14' E 002°56'0 0.0
2017-Apr-24 18:01N 51°14' E 002°56'0 0.0
2017-Apr-24 17:31N 51°14' E 002°56'0 0.0
2017-Apr-24 17:00N 51°14' E 002°56'0 0.0
2017-Apr-24 16:30N 51°14' E 002°56'0 0.0
2017-Apr-24 16:01N 51°14' E 002°56'0 0.0
2017-Apr-24 15:31N 51°14' E 002°56'0 0.0
2017-Apr-24 15:01N 51°14' E 002°56'0 0.0
2017-Apr-24 14:31N 51°14' E 002°56'1 0.6
2017-Apr-24 13:30N 51°14' E 002°55'4 8.4
2017-Apr-24 13:00N 51°18' E 002°52'4 8.5
2017-Apr-24 12:30N 51°20' E 002°47'5 9.1
2017-Apr-24 12:00N 51°22' E 002°40'4 7.1
2017-Apr-24 11:30N 51°26' E 002°37'4 6.7
2017-Apr-24 10:59N 51°29' E 002°37'2 4.7
2017-Apr-24 10:30N 51°27' E 002°37'1 3.0
2017-Apr-24 10:01N 51°28' E 002°37'1 2.9
2017-Apr-24 09:30N 51°27' E 002°36'0 0.3
2017-Apr-24 09:00N 51°27' E 002°36'1 3.0
2017-Apr-24 08:30N 51°28' E 002°36'3 4.9
2017-Apr-24 07:59N 51°26' E 002°36'511.3
2017-Apr-24 07:31N 51°23' E 002°44'611.4
2017-Apr-24 07:01N 51°19' E 002°50'511.0
2017-Apr-24 06:31N 51°15' E 002°55'1 2.8
2017-Apr-24 06:01N 51°14' E 002°56'0 0.0
2017-Apr-24 05:30N 51°14' E 002°56'  
2017-Apr-21 14:02N 51°14' E 002°56'4 7.1
2017-Apr-21 13:30N 51°17' E 002°53'611.5
2017-Apr-21 13:00N 51°21' E 002°46'611.9
2017-Apr-21 12:30N 51°25' E 002°39'5 9.1
2017-Apr-21 12:00N 51°29' E 002°37'1 1.2
2017-Apr-21 11:30N 51°29' E 002°36'4 6.9
2017-Apr-21 10:54N 51°33' E 002°38'2 4.9
2017-Apr-21 10:30N 51°31' E 002°37'0 0.3
2017-Apr-21 09:54N 51°31' E 002°37'1 1.3
2017-Apr-21 09:25N 51°31' E 002°37'3 6.1
2017-Apr-21 08:58N 51°29' E 002°36'510.5
2017-Apr-21 08:30N 51°25' E 002°42'611.2
2017-Apr-21 08:00N 51°21' E 002°48'611.5
2017-Apr-21 07:30N 51°16' E 002°53'3 6.9
2017-Apr-21 07:00N 51°14' E 002°56'0 0.0
2017-Apr-21 06:30N 51°14' E 002°56'0 0.0
2017-Apr-21 06:00N 51°14' E 002°56'0 0.0
2017-Apr-21 05:30N 51°14' E 002°56'0 0.0
2017-Apr-21 05:00N 51°14' E 002°56'0 0.0
2017-Apr-21 04:30N 51°14' E 002°56'0 0.0
2017-Apr-21 04:00N 51°14' E 002°56'0 0.0
2017-Apr-21 03:30N 51°14' E 002°56'0 0.0
2017-Apr-21 03:00N 51°14' E 002°56'0 0.0
2017-Apr-21 02:30N 51°14' E 002°56'0 0.0
2017-Apr-21 02:00N 51°14' E 002°56'0 0.0
2017-Apr-21 01:30N 51°14' E 002°56'0 0.0
2017-Apr-21 01:00N 51°14' E 002°56'0 0.0
2017-Apr-21 00:30N 51°14' E 002°56'0 0.0
2017-Apr-21 00:00N 51°14' E 002°56'0 0.0
2017-Apr-20 23:30N 51°14' E 002°56'0 0.0
2017-Apr-20 23:00N 51°14' E 002°56'0 0.0
2017-Apr-20 22:30N 51°14' E 002°56'0 0.0
2017-Apr-20 22:00N 51°14' E 002°56'0 0.0
2017-Apr-20 21:30N 51°14' E 002°56'0 0.0
2017-Apr-20 21:00N 51°14' E 002°56'0 0.0
2017-Apr-20 20:30N 51°14' E 002°56'0 0.0
2017-Apr-20 20:00N 51°14' E 002°56'0 0.0
2017-Apr-20 19:30N 51°14' E 002°56'0 0.0
2017-Apr-20 19:00N 51°14' E 002°56'0 0.0
2017-Apr-20 18:30N 51°14' E 002°56'0 0.0
2017-Apr-20 18:00N 51°14' E 002°56'0 0.0
2017-Apr-20 17:30N 51°14' E 002°56'0 0.0
2017-Apr-20 17:00N 51°14' E 002°56'0 0.0
2017-Apr-20 16:30N 51°14' E 002°56'0 0.0
2017-Apr-20 16:00N 51°14' E 002°56'0 0.0
2017-Apr-20 15:30N 51°14' E 002°56'0 0.0
2017-Apr-20 15:00N 51°14' E 002°56'0 0.0
2017-Apr-20 14:00N 51°14' E 002°56'3 5.7
2017-Apr-20 13:30N 51°16' E 002°53'611.4
2017-Apr-20 13:00N 51°20' E 002°47'611.6
2017-Apr-20 12:31N 51°24' E 002°40'3 6.5
2017-Apr-20 12:00N 51°27' E 002°39'4 3.5
2017-Apr-20 10:48N 51°31' E 002°40'1 0.9
2017-Apr-20 09:35N 51°30' E 002°40'0 0.1
2017-Apr-20 08:32N 51°30' E 002°39'0 8.0
2017-Apr-20 08:29N 51°30' E 002°39'4 8.1
2017-Apr-20 08:00N 51°26' E 002°39'4 8.4
2017-Apr-20 07:30N 51°24' E 002°45'611.4
2017-Apr-20 07:00N 51°19' E 002°51'611.6
2017-Apr-20 06:30N 51°14' E 002°55'1 1.7
2017-Apr-20 06:00N 51°14' E 002°56'0 0.0
2017-Apr-20 05:30N 51°14' E 002°56'0 0.0
2017-Apr-20 05:00N 51°14' E 002°56'0 0.0
2017-Apr-20 04:30N 51°14' E 002°56'0 0.0
2017-Apr-20 04:00N 51°14' E 002°56'0 0.0
2017-Apr-20 03:30N 51°14' E 002°56'0 0.0
2017-Apr-20 03:00N 51°14' E 002°56'0 0.0
2017-Apr-20 02:30N 51°14' E 002°56'0 0.0
2017-Apr-20 02:00N 51°14' E 002°56'0 0.0
2017-Apr-20 01:30N 51°14' E 002°56'0 0.0
2017-Apr-20 01:00N 51°14' E 002°56'0 0.0
2017-Apr-20 00:30N 51°14' E 002°56'0 0.0
2017-Apr-20 00:00N 51°14' E 002°56'0 0.0
2017-Apr-19 23:30N 51°14' E 002°56'0 0.0
2017-Apr-19 23:00N 51°14' E 002°56'0 0.0
2017-Apr-19 22:30N 51°14' E 002°56'0 0.0
2017-Apr-19 22:00N 51°14' E 002°56'0 0.0
2017-Apr-19 21:30N 51°14' E 002°56'0 0.0
2017-Apr-19 21:00N 51°14' E 002°56'0 0.0
2017-Apr-19 20:30N 51°14' E 002°56'0 0.0
2017-Apr-19 20:00N 51°14' E 002°56'0 0.0
2017-Apr-19 19:30N 51°14' E 002°56'0 0.0
2017-Apr-19 19:00N 51°14' E 002°56'0 0.0
2017-Apr-19 18:30N 51°14' E 002°56'0 0.0
2017-Apr-19 18:00N 51°14' E 002°56'0 0.0
2017-Apr-19 17:30N 51°14' E 002°56'0 0.0
2017-Apr-19 17:00N 51°14' E 002°56'0 0.0
2017-Apr-19 16:30N 51°14' E 002°56'0 0.0
2017-Apr-19 16:00N 51°14' E 002°56'0 0.0
2017-Apr-19 15:30N 51°14' E 002°56'0 0.0
2017-Apr-19 15:00N 51°14' E 002°56'0 0.0
2017-Apr-19 14:30N 51°14' E 002°56'2 1.9
2017-Apr-19 13:30N 51°15' E 002°54'510.0
2017-Apr-19 13:00N 51°20' E 002°58'612.7
2017-Apr-19 12:30N 51°22' E 003°07'510.0
2017-Apr-19 12:00N 51°23' E 003°15'5 9.6
2017-Apr-19 11:30N 51°24' E 003°23'5 9.3
2017-Apr-19 11:00N 51°25' E 003°30'2 3.1
2017-Apr-19 10:23N 51°25' E 003°33'2 6.6
2017-Apr-19 10:00N 51°25' E 003°29'3 6.3
2017-Apr-19 09:30N 51°24' E 003°24'4 7.1
2017-Apr-19 09:00N 51°24' E 003°19'4 7.5
2017-Apr-19 08:30N 51°22' E 003°13'4 8.7
2017-Apr-19 08:00N 51°20' E 003°07'5 9.1
2017-Apr-19 07:30N 51°18' E 003°01'4 7.4
2017-Apr-19 07:00N 51°16' E 002°56'2 4.1
2017-Apr-19 06:31N 51°14' E 002°56'0 0.8
2017-Apr-19 06:00N 51°14' E 002°56'0 0.0
2017-Apr-19 05:30N 51°14' E 002°56'0 0.0
2017-Apr-19 05:00N 51°14' E 002°56'0 0.0
2017-Apr-19 04:30N 51°14' E 002°56'0 0.0
2017-Apr-19 04:00N 51°14' E 002°56'0 0.0
2017-Apr-19 03:30N 51°14' E 002°56'0 0.0
2017-Apr-19 03:00N 51°14' E 002°56'0 0.0
2017-Apr-19 02:31N 51°14' E 002°56'0 0.0
2017-Apr-19 02:01N 51°14' E 002°56'0 0.0
2017-Apr-19 01:30N 51°14' E 002°56'0 0.0
2017-Apr-19 01:00N 51°14' E 002°56'0 0.0
2017-Apr-19 00:31N 51°14' E 002°56'0 0.0
2017-Apr-19 00:01N 51°14' E 002°56'0 0.0
2017-Apr-18 23:31N 51°14' E 002°56'0 0.0
2017-Apr-18 23:00N 51°14' E 002°56'0 0.0
2017-Apr-18 22:30N 51°14' E 002°56'0 0.0
2017-Apr-18 22:00N 51°14' E 002°56'0 0.0
2017-Apr-18 21:31N 51°14' E 002°56'0 0.0
2017-Apr-18 21:00N 51°14' E 002°56'0 0.0
2017-Apr-18 20:30N 51°14' E 002°56'0 0.0
2017-Apr-18 20:00N 51°14' E 002°56'0 0.0
2017-Apr-18 19:30N 51°14' E 002°56'0 0.0
2017-Apr-18 19:01N 51°14' E 002°56'0 0.0
2017-Apr-18 18:30N 51°14' E 002°56'0 0.0
2017-Apr-18 18:00N 51°14' E 002°56'0 0.0
2017-Apr-18 17:30N 51°14' E 002°56'0 0.0
2017-Apr-18 17:00N 51°14' E 002°56'0 0.0
2017-Apr-18 16:31N 51°14' E 002°56'0 0.0
2017-Apr-18 16:00N 51°14' E 002°56'0 0.0
2017-Apr-18 15:30N 51°14' E 002°56'0 0.0
2017-Apr-18 15:00N 51°14' E 002°56'0 0.0
2017-Apr-18 14:30N 51°14' E 002°56'0 0.0
2017-Apr-18 13:30N 51°14' E 002°56'0 0.0
2017-Apr-18 13:00N 51°14' E 002°56'0 0.0
2017-Apr-18 12:30N 51°14' E 002°56'0 0.0
2017-Apr-18 12:01N 51°14' E 002°56'0 0.0
2017-Apr-18 11:30N 51°14' E 002°56'0 0.0
2017-Apr-18 11:00N 51°14' E 002°56'0 0.0
2017-Apr-18 10:31N 51°14' E 002°56'0 0.0
2017-Apr-18 10:00N 51°14' E 002°56'0 0.0
2017-Apr-18 09:30N 51°14' E 002°56'0 0.0
2017-Apr-18 09:00N 51°14' E 002°56'0 0.0
2017-Apr-18 08:30N 51°14' E 002°56'0 0.0
2017-Apr-18 08:00N 51°14' E 002°56'0 0.0
2017-Apr-18 07:30N 51°14' E 002°56'0 0.0
2017-Apr-18 07:00N 51°14' E 002°56'0 0.0
2017-Apr-18 06:30N 51°14' E 002°56'0 0.0
2017-Apr-18 06:00N 51°14' E 002°56'0 0.0
2017-Apr-18 05:30N 51°14' E 002°56'  
Track history (hours):
 
Tides and Currents Weather Stations Pressure Air Temp Water Temp Dewpoint Dewpoint Depression Visibility Wind Speed Wind Dir Waves Ship Positions

Oceanographic research ship Ter Streep (Belgium)

Detailed information on ship capabilities available from University of Delaware's Ocean Information Center.

Last reported at 2017-Apr-25 16:31 UTC. Time now 2017-Apr-25 16:33 UTC.
Position N 51°14' E 002°56'.

Length 50 m; draft 3.4 m.

Type: Ship. MMSI: 205112000.

Date/timePositionNaut miles runAvg speedWind from/ knotsBaromVisibWave heightAir tempDewpointWater temp
2017-Apr-25 16:31N 51°14' E 002°56'0 0.0
2017-Apr-25 16:00N 51°14' E 002°56'0 0.0
2017-Apr-25 15:31N 51°14' E 002°56'0 0.0
2017-Apr-25 15:01N 51°14' E 002°56'0 0.0
2017-Apr-25 14:31N 51°14' E 002°56'0 0.0
2017-Apr-25 13:31N 51°14' E 002°56'0 0.0
2017-Apr-25 13:01N 51°14' E 002°56'0 0.0
2017-Apr-25 12:31N 51°14' E 002°56'0 0.0
2017-Apr-25 12:00N 51°14' E 002°56'0 0.0
2017-Apr-25 11:31N 51°14' E 002°56'0 0.0
2017-Apr-25 11:01N 51°14' E 002°56'0 0.0
2017-Apr-25 10:31N 51°14' E 002°56'0 0.0
2017-Apr-25 10:01N 51°14' E 002°56'0 0.0
2017-Apr-25 09:31N 51°14' E 002°56'0 0.0
2017-Apr-25 09:01N 51°14' E 002°56'0 0.0
2017-Apr-25 08:31N 51°14' E 002°56'0 0.0
2017-Apr-25 08:00N 51°14' E 002°56'0 0.0
2017-Apr-25 07:31N 51°14' E 002°56'0 0.0
2017-Apr-25 07:01N 51°14' E 002°56'0 0.0
2017-Apr-25 06:31N 51°14' E 002°56'0 0.0
2017-Apr-25 06:01N 51°14' E 002°56'0 0.0
2017-Apr-25 05:31N 51°14' E 002°56'0 0.0
2017-Apr-25 05:01N 51°14' E 002°56'0 0.0
2017-Apr-25 04:31N 51°14' E 002°56'0 0.0
2017-Apr-25 04:01N 51°14' E 002°56'0 0.0
2017-Apr-25 03:30N 51°14' E 002°56'0 0.0
2017-Apr-25 03:01N 51°14' E 002°56'0 0.0
2017-Apr-25 02:31N 51°14' E 002°56'0 0.0
2017-Apr-25 02:00N 51°14' E 002°56'0 0.0
2017-Apr-25 01:31N 51°14' E 002°56'0 0.0
2017-Apr-25 01:01N 51°14' E 002°56'0 0.0
2017-Apr-25 00:30N 51°14' E 002°56'0 0.0
2017-Apr-25 00:01N 51°14' E 002°56'0 0.0
2017-Apr-24 23:30N 51°14' E 002°56'0 0.0
2017-Apr-24 23:01N 51°14' E 002°56'0 0.0
2017-Apr-24 22:31N 51°14' E 002°56'0 0.0
2017-Apr-24 22:00N 51°14' E 002°56'0 0.0
2017-Apr-24 21:31N 51°14' E 002°56'0 0.0
2017-Apr-24 21:01N 51°14' E 002°56'0 0.0
2017-Apr-24 20:31N 51°14' E 002°56'0 0.0
2017-Apr-24 20:01N 51°14' E 002°56'0 0.0
2017-Apr-24 19:31N 51°14' E 002°56'0 0.0
2017-Apr-24 19:00N 51°14' E 002°56'0 0.0
2017-Apr-24 18:31N 51°14' E 002°56'0 0.0
2017-Apr-24 18:01N 51°14' E 002°56'0 0.0
2017-Apr-24 17:31N 51°14' E 002°56'0 0.0
2017-Apr-24 17:00N 51°14' E 002°56'0 0.0
2017-Apr-24 16:30N 51°14' E 002°56'0 0.0
2017-Apr-24 16:01N 51°14' E 002°56'0 0.0
2017-Apr-24 15:31N 51°14' E 002°56'0 0.0
2017-Apr-24 15:01N 51°14' E 002°56'0 0.0
2017-Apr-24 14:31N 51°14' E 002°56'1 0.6
2017-Apr-24 13:30N 51°14' E 002°55'4 8.4
2017-Apr-24 13:00N 51°18' E 002°52'4 8.5
2017-Apr-24 12:30N 51°20' E 002°47'5 9.1
2017-Apr-24 12:00N 51°22' E 002°40'4 7.1
2017-Apr-24 11:30N 51°26' E 002°37'4 6.7
2017-Apr-24 10:59N 51°29' E 002°37'2 4.7
2017-Apr-24 10:30N 51°27' E 002°37'1 3.0
2017-Apr-24 10:01N 51°28' E 002°37'1 2.9
2017-Apr-24 09:30N 51°27' E 002°36'0 0.3
2017-Apr-24 09:00N 51°27' E 002°36'1 3.0
2017-Apr-24 08:30N 51°28' E 002°36'3 4.9
2017-Apr-24 07:59N 51°26' E 002°36'511.3
2017-Apr-24 07:31N 51°23' E 002°44'611.4
2017-Apr-24 07:01N 51°19' E 002°50'511.0
2017-Apr-24 06:31N 51°15' E 002°55'1 2.8
2017-Apr-24 06:01N 51°14' E 002°56'0 0.0
2017-Apr-24 05:30N 51°14' E 002°56'  
2017-Apr-21 14:02N 51°14' E 002°56'4 7.1
2017-Apr-21 13:30N 51°17' E 002°53'611.5
2017-Apr-21 13:00N 51°21' E 002°46'611.9
2017-Apr-21 12:30N 51°25' E 002°39'5 9.1
2017-Apr-21 12:00N 51°29' E 002°37'1 1.2
2017-Apr-21 11:30N 51°29' E 002°36'4 6.9
2017-Apr-21 10:54N 51°33' E 002°38'2 4.9
2017-Apr-21 10:30N 51°31' E 002°37'0 0.3
2017-Apr-21 09:54N 51°31' E 002°37'1 1.3
2017-Apr-21 09:25N 51°31' E 002°37'3 6.1
2017-Apr-21 08:58N 51°29' E 002°36'510.5
2017-Apr-21 08:30N 51°25' E 002°42'611.2
2017-Apr-21 08:00N 51°21' E 002°48'611.5
2017-Apr-21 07:30N 51°16' E 002°53'3 6.9
2017-Apr-21 07:00N 51°14' E 002°56'0 0.0
2017-Apr-21 06:30N 51°14' E 002°56'0 0.0
2017-Apr-21 06:00N 51°14' E 002°56'0 0.0
2017-Apr-21 05:30N 51°14' E 002°56'0 0.0
2017-Apr-21 05:00N 51°14' E 002°56'0 0.0
2017-Apr-21 04:30N 51°14' E 002°56'0 0.0
2017-Apr-21 04:00N 51°14' E 002°56'0 0.0
2017-Apr-21 03:30N 51°14' E 002°56'0 0.0
2017-Apr-21 03:00N 51°14' E 002°56'0 0.0
2017-Apr-21 02:30N 51°14' E 002°56'0 0.0
2017-Apr-21 02:00N 51°14' E 002°56'0 0.0
2017-Apr-21 01:30N 51°14' E 002°56'0 0.0
2017-Apr-21 01:00N 51°14' E 002°56'0 0.0
2017-Apr-21 00:30N 51°14' E 002°56'0 0.0
2017-Apr-21 00:00N 51°14' E 002°56'0 0.0
2017-Apr-20 23:30N 51°14' E 002°56'0 0.0
2017-Apr-20 23:00N 51°14' E 002°56'0 0.0
2017-Apr-20 22:30N 51°14' E 002°56'0 0.0
2017-Apr-20 22:00N 51°14' E 002°56'0 0.0
2017-Apr-20 21:30N 51°14' E 002°56'0 0.0
2017-Apr-20 21:00N 51°14' E 002°56'0 0.0
2017-Apr-20 20:30N 51°14' E 002°56'0 0.0
2017-Apr-20 20:00N 51°14' E 002°56'0 0.0
2017-Apr-20 19:30N 51°14' E 002°56'0 0.0
2017-Apr-20 19:00N 51°14' E 002°56'0 0.0
2017-Apr-20 18:30N 51°14' E 002°56'0 0.0
2017-Apr-20 18:00N 51°14' E 002°56'0 0.0
2017-Apr-20 17:30N 51°14' E 002°56'0 0.0
2017-Apr-20 17:00N 51°14' E 002°56'0 0.0
2017-Apr-20 16:30N 51°14' E 002°56'0 0.0
2017-Apr-20 16:00N 51°14' E 002°56'0 0.0
2017-Apr-20 15:30N 51°14' E 002°56'0 0.0
2017-Apr-20 15:00N 51°14' E 002°56'0 0.0
2017-Apr-20 14:00N 51°14' E 002°56'3 5.7
2017-Apr-20 13:30N 51°16' E 002°53'611.4
2017-Apr-20 13:00N 51°20' E 002°47'611.6
2017-Apr-20 12:31N 51°24' E 002°40'3 6.5
2017-Apr-20 12:00N 51°27' E 002°39'4 3.5
2017-Apr-20 10:48N 51°31' E 002°40'1 0.9
2017-Apr-20 09:35N 51°30' E 002°40'0 0.1
2017-Apr-20 08:32N 51°30' E 002°39'0 8.0
2017-Apr-20 08:29N 51°30' E 002°39'4 8.1
2017-Apr-20 08:00N 51°26' E 002°39'4 8.4
2017-Apr-20 07:30N 51°24' E 002°45'611.4
2017-Apr-20 07:00N 51°19' E 002°51'611.6
2017-Apr-20 06:30N 51°14' E 002°55'1 1.7
2017-Apr-20 06:00N 51°14' E 002°56'0 0.0
2017-Apr-20 05:30N 51°14' E 002°56'0 0.0
2017-Apr-20 05:00N 51°14' E 002°56'0 0.0
2017-Apr-20 04:30N 51°14' E 002°56'0 0.0
2017-Apr-20 04:00N 51°14' E 002°56'0 0.0
2017-Apr-20 03:30N 51°14' E 002°56'0 0.0
2017-Apr-20 03:00N 51°14' E 002°56'0 0.0
2017-Apr-20 02:30N 51°14' E 002°56'0 0.0
2017-Apr-20 02:00N 51°14' E 002°56'0 0.0
2017-Apr-20 01:30N 51°14' E 002°56'0 0.0
2017-Apr-20 01:00N 51°14' E 002°56'0 0.0
2017-Apr-20 00:30N 51°14' E 002°56'0 0.0
2017-Apr-20 00:00N 51°14' E 002°56'0 0.0
2017-Apr-19 23:30N 51°14' E 002°56'0 0.0
2017-Apr-19 23:00N 51°14' E 002°56'0 0.0
2017-Apr-19 22:30N 51°14' E 002°56'0 0.0
2017-Apr-19 22:00N 51°14' E 002°56'0 0.0
2017-Apr-19 21:30N 51°14' E 002°56'0 0.0
2017-Apr-19 21:00N 51°14' E 002°56'0 0.0
2017-Apr-19 20:30N 51°14' E 002°56'0 0.0
2017-Apr-19 20:00N 51°14' E 002°56'0 0.0
2017-Apr-19 19:30N 51°14' E 002°56'0 0.0
2017-Apr-19 19:00N 51°14' E 002°56'0 0.0
2017-Apr-19 18:30N 51°14' E 002°56'0 0.0
2017-Apr-19 18:00N 51°14' E 002°56'0 0.0
2017-Apr-19 17:30N 51°14' E 002°56'0 0.0
2017-Apr-19 17:00N 51°14' E 002°56'0 0.0
2017-Apr-19 16:30N 51°14' E 002°56'0 0.0
2017-Apr-19 16:00N 51°14' E 002°56'0 0.0
2017-Apr-19 15:30N 51°14' E 002°56'0 0.0
2017-Apr-19 15:00N 51°14' E 002°56'0 0.0
2017-Apr-19 14:30N 51°14' E 002°56'2 1.9
2017-Apr-19 13:30N 51°15' E 002°54'510.0
2017-Apr-19 13:00N 51°20' E 002°58'612.7
2017-Apr-19 12:30N 51°22' E 003°07'510.0
2017-Apr-19 12:00N 51°23' E 003°15'5 9.6
2017-Apr-19 11:30N 51°24' E 003°23'5 9.3
2017-Apr-19 11:00N 51°25' E 003°30'2 3.1
2017-Apr-19 10:23N 51°25' E 003°33'2 6.6
2017-Apr-19 10:00N 51°25' E 003°29'3 6.3
2017-Apr-19 09:30N 51°24' E 003°24'4 7.1
2017-Apr-19 09:00N 51°24' E 003°19'4 7.5
2017-Apr-19 08:30N 51°22' E 003°13'4 8.7
2017-Apr-19 08:00N 51°20' E 003°07'5 9.1
2017-Apr-19 07:30N 51°18' E 003°01'4 7.4
2017-Apr-19 07:00N 51°16' E 002°56'2 4.1
2017-Apr-19 06:31N 51°14' E 002°56'0 0.8
2017-Apr-19 06:00N 51°14' E 002°56'0 0.0
2017-Apr-19 05:30N 51°14' E 002°56'0 0.0
2017-Apr-19 05:00N 51°14' E 002°56'0 0.0
2017-Apr-19 04:30N 51°14' E 002°56'0 0.0
2017-Apr-19 04:00N 51°14' E 002°56'0 0.0
2017-Apr-19 03:30N 51°14' E 002°56'0 0.0
2017-Apr-19 03:00N 51°14' E 002°56'0 0.0
2017-Apr-19 02:31N 51°14' E 002°56'0 0.0
2017-Apr-19 02:01N 51°14' E 002°56'0 0.0
2017-Apr-19 01:30N 51°14' E 002°56'0 0.0
2017-Apr-19 01:00N 51°14' E 002°56'0 0.0
2017-Apr-19 00:31N 51°14' E 002°56'0 0.0
2017-Apr-19 00:01N 51°14' E 002°56'0 0.0
2017-Apr-18 23:31N 51°14' E 002°56'0 0.0
2017-Apr-18 23:00N 51°14' E 002°56'0 0.0
2017-Apr-18 22:30N 51°14' E 002°56'0 0.0
2017-Apr-18 22:00N 51°14' E 002°56'0 0.0
2017-Apr-18 21:31N 51°14' E 002°56'0 0.0
2017-Apr-18 21:00N 51°14' E 002°56'0 0.0
2017-Apr-18 20:30N 51°14' E 002°56'0 0.0
2017-Apr-18 20:00N 51°14' E 002°56'0 0.0
2017-Apr-18 19:30N 51°14' E 002°56'0 0.0
2017-Apr-18 19:01N 51°14' E 002°56'0 0.0
2017-Apr-18 18:30N 51°14' E 002°56'0 0.0
2017-Apr-18 18:00N 51°14' E 002°56'0 0.0
2017-Apr-18 17:30N 51°14' E 002°56'0 0.0
2017-Apr-18 17:00N 51°14' E 002°56'0 0.0
2017-Apr-18 16:31N 51°14' E 002°56'0 0.0
2017-Apr-18 16:00N 51°14' E 002°56'0 0.0
2017-Apr-18 15:30N 51°14' E 002°56'0 0.0
2017-Apr-18 15:00N 51°14' E 002°56'0 0.0
2017-Apr-18 14:30N 51°14' E 002°56'0 0.0
2017-Apr-18 13:30N 51°14' E 002°56'0 0.0
2017-Apr-18 13:00N 51°14' E 002°56'0 0.0
2017-Apr-18 12:30N 51°14' E 002°56'0 0.0
2017-Apr-18 12:01N 51°14' E 002°56'0 0.0
2017-Apr-18 11:30N 51°14' E 002°56'0 0.0
2017-Apr-18 11:00N 51°14' E 002°56'0 0.0
2017-Apr-18 10:31N 51°14' E 002°56'0 0.0
2017-Apr-18 10:00N 51°14' E 002°56'0 0.0
2017-Apr-18 09:30N 51°14' E 002°56'0 0.0
2017-Apr-18 09:00N 51°14' E 002°56'0 0.0
2017-Apr-18 08:30N 51°14' E 002°56'0 0.0
2017-Apr-18 08:00N 51°14' E 002°56'0 0.0
2017-Apr-18 07:30N 51°14' E 002°56'0 0.0
2017-Apr-18 07:00N 51°14' E 002°56'0 0.0
2017-Apr-18 06:30N 51°14' E 002°56'0 0.0
2017-Apr-18 06:00N 51°14' E 002°56'0 0.0
2017-Apr-18 05:30N 51°14' E 002°56'  

Dump ship's entire track history